GCLPTNCM

Guest
Details From GCLP - Gran Canaria
To TNCM - St Maarten - Princess Juliana Intl
Flight Number -
Tags generated
Created
Modified
Stats Distance 2,784 nm / 5,157 km
Max Altitude 34,000 ft / 10,363 m
Waypoints 14
Social Downloads 0
Likes 0
Share VATSIM

Download

Looking for another format? Having issues loading an existing format? Contact us
Advertisement - Login to hide

Notes

Basic altitude profile: - Ascent Rate: 2500ft/min - Ascent Speed: 250kts - Cruise Altitude: 35000ft - Cruise Speed: 420kts - Descent Rate: 1500ft/min - Descent Speed: 250kts Options: - Use NATs: yes - Use PACOTS: yes - Use low airways: no - Use high airways: yes

Route

GCLP VIDRI UN871 APASO NORED 2600N02500W 2600N03000W 2500N03500W 2400N04000W 2300N04500W 2200N05000W 2100N05500W 1900N06000W TOTEM TNCM

ID Type Via Altitude Latitude Longitude Leg Dist Tot Dist Heading (true) Name
O GCLP APT - 0 ft / 0 m 27.93154˚ -15.38559˚ - 0 nm - Gran Canaria
VIDRI FIX - 34,000 ft / 10,363 m 26.89458˚ -17.03990˚ 107 nm 107 nm 235° / 234° -
APASO FIX UN871 (AWY-HI) 34,000 ft / 10,363 m 25.00000˚ -19.50463˚ 175 nm 283 nm 230° / 229° -
NORED FIX - 34,000 ft / 10,363 m 24.63836˚ -22.48003˚ 163 nm 446 nm 263° / 262° -
2600N02500W LATLON - 34,000 ft / 10,363 m 26.00000˚ -25.00000˚ 159 nm 606 nm 301° / 300° -
2600N03000W LATLON - 34,000 ft / 10,363 m 26.00000˚ -30.00000˚ 269 nm 875 nm 271° / 269° -
2500N03500W LATLON - 34,000 ft / 10,363 m 25.00000˚ -35.00000˚ 277 nm 1153 nm 259° / 256° -
2400N04000W LATLON - 34,000 ft / 10,363 m 24.00000˚ -40.00000˚ 279 nm 1433 nm 259° / 257° -
2300N04500W LATLON - 34,000 ft / 10,363 m 23.00000˚ -45.00000˚ 281 nm 1715 nm 259° / 257° -
2200N05000W LATLON - 34,000 ft / 10,363 m 22.00000˚ -50.00000˚ 283 nm 1998 nm 259° / 257° -
2100N05500W LATLON - 34,000 ft / 10,363 m 21.00000˚ -55.00000˚ 285 nm 2284 nm 259° / 257° -
1900N06000W LATLON - 34,000 ft / 10,363 m 19.00000˚ -60.00000˚ 306 nm 2591 nm 248° / 246° -
TOTEM FIX - 14,000 ft / 4,267 m 18.00000˚ -61.88367˚ 122 nm 2714 nm 241° / 240° -
O TNCM APT - 0 ft / 0 m 18.04089˚ -63.10897˚ 70 nm 2784 nm 272° / 272° St Maarten - Princess Juliana Intl

Altitude Profile

Advertisement - Login to hide

Weather


0- 5 10 15 20 25 30 35+ Temperature / ° C

Clouds and Precipitation
Forecast for 2018-05-21 12:00 UTC. Updated 6 minutes ago

Ground ~20,000 ft ~40,000 ft Winds

GCLP

Details ICAO GCLP (LPA)
Name Gran Canaria
Region Canary Islands
Timezone Atlantic/Canary (UTC+1.0)
Stats Elevation 77 ft / 23 m (AMSL)
Location 27.931544° -15.385592°
Runways 2
Magnetic Variation 4.635° W

METAR

GCLP 211100Z 04021KT 9999 FEW030 SCT045 22/13 Q1016 NOSIG

Decode

TAF

TAF GCLP 210800Z 2109/2209 01018KT 9999 FEW030 TX23/2115Z TN16/2205Z= TAF AMD KLRF 210815Z 2108/2213 20006KT 9999 VCTS SCT016CB BKN040 BKN200 QNH2996INS TEMPO 2108/2110 25009KT 8000 -TSRA BKN007CB BECMG 2109/2110 20006KT 9999 NSW SCT015 BKN200 QNH2999INS BECMG 2117/2118 28006KT 8000 -SHRA BKN055 BKN200 QNH2992INS TEMPO 2118/2124 23010G20KT 4800 -TSRA BKN020CB BECMG 2123/2124 16006KT 9999 NSW BKN065 QNH2995INS TX32/2121Z TN21/2111Z

Decode

Departure Runways

ID Width Length Bearing (true) Bearing (mag) Surface Threshold Offset Overrun Length
03L 148 ft / 45 m 10,203 ft / 3,110 m 21.33° 25.96° Asphalt 0 ft / 0 m 656 ft / 200 m
03R 148 ft / 45 m 10,200 ft / 3,109 m 21.32° 25.95° Asphalt 0 ft / 0 m 673 ft / 205 m
21L 148 ft / 45 m 10,200 ft / 3,109 m 201.33° 205.96° Asphalt 0 ft / 0 m 689 ft / 210 m
21R 148 ft / 45 m 10,203 ft / 3,110 m 201.33° 205.96° Asphalt 0 ft / 0 m 755 ft / 230 m

TNCM

Details ICAO TNCM (SXM)
Name St Maarten - Princess Juliana Intl
Region Caribbean Netherlands, Aruba, Curaçao, Sint Maarten
Timezone Unknown (UTC+0.0)
Stats Elevation 12 ft / 4 m (AMSL)
Location 18.040889° -63.108974°
Runways 1
Magnetic Variation 14.337° W

METAR

TNCM 211100Z 08009KT 050V110 9999 FEW018 26/21 Q1017 A3003 NOSIG

Decode

TAF

TAF TNCM 210520Z 2106/2206 08010KT P6SM VCSH SCT018 FM211300 09015KT P6SM VCSH SCT020

Decode

Destination Runways

ID Width Length Bearing (true) Bearing (mag) Surface Threshold Offset Overrun Length
10 148 ft / 45 m 7,464 ft / 2,275 m 81.43° 95.77° Asphalt 0 ft / 0 m 151 ft / 46 m
28 148 ft / 45 m 7,464 ft / 2,275 m 261.44° 275.78° Asphalt 397 ft / 121 m 0 ft / 0 m

Popular Alternatives